sensor_id;sensor_type;location;lat;lon;timestamp;P1;durP1;ratioP1;P2;durP2;ratioP2
62580;SDS011;48640;48.770;9.148;2022-11-15T00:00:45;4.85;;;2.22;;
62580;SDS011;48640;48.770;9.148;2022-11-15T00:03:13;4.18;;;2.47;;
62580;SDS011;48640;48.770;9.148;2022-11-15T00:05:40;6.18;;;2.22;;
62580;SDS011;48640;48.770;9.148;2022-11-15T00:08:07;4.40;;;2.25;;
62580;SDS011;48640;48.770;9.148;2022-11-15T00:10:34;4.00;;;2.55;;
62580;SDS011;48640;48.770;9.148;2022-11-15T00:13:05;5.03;;;2.67;;
62580;SDS011;48640;48.770;9.148;2022-11-15T00:15:34;5.07;;;2.88;;
62580;SDS011;48640;48.770;9.148;2022-11-15T00:18:01;4.00;;;2.28;;
62580;SDS011;48640;48.770;9.148;2022-11-15T00:20:28;3.90;;;2.10;;
62580;SDS011;48640;48.770;9.148;2022-11-15T00:22:55;3.22;;;1.80;;
62580;SDS011;48640;48.770;9.148;2022-11-15T00:25:22;3.83;;;1.67;;
62580;SDS011;48640;48.770;9.148;2022-11-15T00:27:49;4.75;;;2.13;;
62580;SDS011;48640;48.770;9.148;2022-11-15T00:30:18;3.20;;;2.00;;
62580;SDS011;48640;48.770;9.148;2022-11-15T00:32:44;4.20;;;2.17;;
62580;SDS011;48640;48.770;9.148;2022-11-15T00:35:11;4.82;;;1.70;;
62580;SDS011;48640;48.770;9.148;2022-11-15T00:37:38;5.57;;;2.53;;
62580;SDS011;48640;48.770;9.148;2022-11-15T00:40:05;5.75;;;2.05;;
62580;SDS011;48640;48.770;9.148;2022-11-15T00:42:33;3.65;;;1.90;;
62580;SDS011;48640;48.770;9.148;2022-11-15T00:45:00;3.85;;;2.10;;
62580;SDS011;48640;48.770;9.148;2022-11-15T00:47:28;5.35;;;2.10;;
62580;SDS011;48640;48.770;9.148;2022-11-15T00:49:55;5.72;;;2.03;;
62580;SDS011;48640;48.770;9.148;2022-11-15T00:52:22;3.53;;;2.00;;
62580;SDS011;48640;48.770;9.148;2022-11-15T00:54:49;5.32;;;2.17;;
62580;SDS011;48640;48.770;9.148;2022-11-15T00:57:15;4.63;;;2.13;;
62580;SDS011;48640;48.770;9.148;2022-11-15T00:59:42;4.85;;;2.30;;
62580;SDS011;48640;48.770;9.148;2022-11-15T01:02:09;4.65;;;2.28;;
62580;SDS011;48640;48.770;9.148;2022-11-15T01:04:37;5.40;;;2.10;;
62580;SDS011;48640;48.770;9.148;2022-11-15T01:07:04;4.22;;;2.53;;
62580;SDS011;48640;48.770;9.148;2022-11-15T01:09:31;5.00;;;2.10;;
62580;SDS011;48640;48.770;9.148;2022-11-15T01:11:58;3.78;;;2.45;;
62580;SDS011;48640;48.770;9.148;2022-11-15T01:14:24;5.43;;;2.30;;
62580;SDS011;48640;48.770;9.148;2022-11-15T01:16:51;4.43;;;2.33;;
62580;SDS011;48640;48.770;9.148;2022-11-15T01:19:18;4.32;;;2.50;;
62580;SDS011;48640;48.770;9.148;2022-11-15T01:21:48;6.43;;;2.42;;
62580;SDS011;48640;48.770;9.148;2022-11-15T01:24:14;5.53;;;2.22;;
62580;SDS011;48640;48.770;9.148;2022-11-15T01:26:41;5.70;;;2.60;;
62580;SDS011;48640;48.770;9.148;2022-11-15T01:29:08;4.65;;;2.20;;
62580;SDS011;48640;48.770;9.148;2022-11-15T01:31:35;3.35;;;2.10;;
62580;SDS011;48640;48.770;9.148;2022-11-15T01:34:02;3.75;;;1.88;;
62580;SDS011;48640;48.770;9.148;2022-11-15T01:36:28;7.07;;;2.35;;
62580;SDS011;48640;48.770;9.148;2022-11-15T01:38:57;5.28;;;2.05;;
62580;SDS011;48640;48.770;9.148;2022-11-15T01:41:26;5.18;;;2.13;;
62580;SDS011;48640;48.770;9.148;2022-11-15T01:43:54;4.57;;;1.87;;
62580;SDS011;48640;48.770;9.148;2022-11-15T01:46:24;4.18;;;2.40;;
62580;SDS011;48640;48.770;9.148;2022-11-15T01:48:55;5.68;;;2.20;;
62580;SDS011;48640;48.770;9.148;2022-11-15T01:51:25;5.20;;;2.05;;
62580;SDS011;48640;48.770;9.148;2022-11-15T01:53:54;7.30;;;2.90;;
62580;SDS011;48640;48.770;9.148;2022-11-15T01:56:27;4.97;;;2.38;;
62580;SDS011;48640;48.770;9.148;2022-11-15T01:58:58;5.65;;;2.53;;
62580;SDS011;48640;48.770;9.148;2022-11-15T02:01:27;5.70;;;2.08;;
62580;SDS011;48640;48.770;9.148;2022-11-15T02:03:57;4.78;;;1.83;;
62580;SDS011;48640;48.770;9.148;2022-11-15T02:06:26;4.85;;;2.35;;
62580;SDS011;48640;48.770;9.148;2022-11-15T02:08:53;4.50;;;2.00;;
62580;SDS011;48640;48.770;9.148;2022-11-15T02:11:23;4.53;;;2.13;;
62580;SDS011;48640;48.770;9.148;2022-11-15T02:13:50;3.45;;;1.80;;
62580;SDS011;48640;48.770;9.148;2022-11-15T02:16:20;4.85;;;2.78;;
62580;SDS011;48640;48.770;9.148;2022-11-15T02:22:22;4.80;;;1.92;;
62580;SDS011;48640;48.770;9.148;2022-11-15T02:25:01;7.53;;;1.67;;
62580;SDS011;48640;48.770;9.148;2022-11-15T02:27:41;7.47;;;1.80;;
62580;SDS011;48640;48.770;9.148;2022-11-15T02:32:57;3.65;;;1.75;;
62580;SDS011;48640;48.770;9.148;2022-11-15T02:35:28;5.40;;;2.20;;
62580;SDS011;48640;48.770;9.148;2022-11-15T02:38:04;4.95;;;2.17;;
62580;SDS011;48640;48.770;9.148;2022-11-15T02:40:37;5.57;;;2.08;;
62580;SDS011;48640;48.770;9.148;2022-11-15T02:43:10;4.28;;;1.83;;
62580;SDS011;48640;48.770;9.148;2022-11-15T02:45:58;7.70;;;2.30;;
62580;SDS011;48640;48.770;9.148;2022-11-15T02:48:30;3.92;;;2.30;;
62580;SDS011;48640;48.770;9.148;2022-11-15T02:50:58;4.70;;;1.90;;
62580;SDS011;48640;48.770;9.148;2022-11-15T02:53:26;3.83;;;1.85;;
62580;SDS011;48640;48.770;9.148;2022-11-15T02:55:54;4.22;;;1.52;;
62580;SDS011;48640;48.770;9.148;2022-11-15T02:58:35;5.78;;;2.10;;
62580;SDS011;48640;48.770;9.148;2022-11-15T03:01:24;4.50;;;2.00;;
62580;SDS011;48640;48.770;9.148;2022-11-15T03:04:02;4.47;;;1.98;;
62580;SDS011;48640;48.770;9.148;2022-11-15T03:06:42;5.72;;;2.47;;
62580;SDS011;48640;48.770;9.148;2022-11-15T03:09:13;4.35;;;2.33;;
62580;SDS011;48640;48.770;9.148;2022-11-15T03:11:51;4.88;;;2.42;;
62580;SDS011;48640;48.770;9.148;2022-11-15T03:14:23;5.93;;;2.80;;
62580;SDS011;48640;48.770;9.148;2022-11-15T03:16:58;7.97;;;3.03;;
62580;SDS011;48640;48.770;9.148;2022-11-15T03:19:29;8.65;;;3.55;;
62580;SDS011;48640;48.770;9.148;2022-11-15T03:22:00;6.25;;;2.90;;
62580;SDS011;48640;48.770;9.148;2022-11-15T03:24:31;7.10;;;2.92;;
62580;SDS011;48640;48.770;9.148;2022-11-15T03:27:00;5.30;;;2.92;;
62580;SDS011;48640;48.770;9.148;2022-11-15T03:29:29;5.25;;;3.00;;
62580;SDS011;48640;48.770;9.148;2022-11-15T03:32:02;4.18;;;2.60;;
62580;SDS011;48640;48.770;9.148;2022-11-15T03:34:34;3.90;;;1.83;;
62580;SDS011;48640;48.770;9.148;2022-11-15T03:37:06;3.67;;;1.90;;
62580;SDS011;48640;48.770;9.148;2022-11-15T03:39:34;4.43;;;2.17;;
62580;SDS011;48640;48.770;9.148;2022-11-15T03:42:04;3.60;;;1.90;;
62580;SDS011;48640;48.770;9.148;2022-11-15T03:44:40;6.05;;;2.50;;
62580;SDS011;48640;48.770;9.148;2022-11-15T03:47:15;3.95;;;2.38;;
62580;SDS011;48640;48.770;9.148;2022-11-15T03:49:46;3.35;;;1.90;;
62580;SDS011;48640;48.770;9.148;2022-11-15T03:52:18;3.30;;;1.85;;
62580;SDS011;48640;48.770;9.148;2022-11-15T03:54:52;3.80;;;1.80;;
62580;SDS011;48640;48.770;9.148;2022-11-15T03:57:20;7.47;;;2.08;;
62580;SDS011;48640;48.770;9.148;2022-11-15T03:59:48;3.53;;;2.03;;
62580;SDS011;48640;48.770;9.148;2022-11-15T04:02:16;3.60;;;2.13;;
62580;SDS011;48640;48.770;9.148;2022-11-15T04:04:43;3.85;;;1.90;;
62580;SDS011;48640;48.770;9.148;2022-11-15T04:07:10;5.30;;;1.95;;
62580;SDS011;48640;48.770;9.148;2022-11-15T04:09:36;3.15;;;1.80;;
62580;SDS011;48640;48.770;9.148;2022-11-15T04:12:23;5.43;;;1.92;;
62580;SDS011;48640;48.770;9.148;2022-11-15T04:14:57;3.22;;;1.77;;
62580;SDS011;48640;48.770;9.148;2022-11-15T04:17:35;3.90;;;1.70;;
62580;SDS011;48640;48.770;9.148;2022-11-15T04:20:04;4.25;;;1.60;;
62580;SDS011;48640;48.770;9.148;2022-11-15T04:22:51;3.40;;;1.77;;
62580;SDS011;48640;48.770;9.148;2022-11-15T04:25:36;3.80;;;1.92;;
62580;SDS011;48640;48.770;9.148;2022-11-15T04:28:03;3.15;;;2.03;;
62580;SDS011;48640;48.770;9.148;2022-11-15T04:30:30;4.72;;;2.45;;
62580;SDS011;48640;48.770;9.148;2022-11-15T04:32:58;4.45;;;2.03;;
62580;SDS011;48640;48.770;9.148;2022-11-15T04:35:25;3.80;;;1.80;;
62580;SDS011;48640;48.770;9.148;2022-11-15T04:37:52;3.55;;;2.05;;
62580;SDS011;48640;48.770;9.148;2022-11-15T04:40:19;6.07;;;2.10;;
62580;SDS011;48640;48.770;9.148;2022-11-15T04:42:46;5.40;;;1.98;;
62580;SDS011;48640;48.770;9.148;2022-11-15T04:45:12;4.35;;;1.50;;
62580;SDS011;48640;48.770;9.148;2022-11-15T04:47:40;4.95;;;1.90;;
62580;SDS011;48640;48.770;9.148;2022-11-15T04:50:10;3.20;;;1.80;;
62580;SDS011;48640;48.770;9.148;2022-11-15T04:52:39;2.50;;;1.58;;
62580;SDS011;48640;48.770;9.148;2022-11-15T04:55:07;3.75;;;1.77;;
62580;SDS011;48640;48.770;9.148;2022-11-15T04:57:34;5.30;;;1.95;;
62580;SDS011;48640;48.770;9.148;2022-11-15T05:00:01;2.67;;;1.65;;
62580;SDS011;48640;48.770;9.148;2022-11-15T05:02:29;3.15;;;1.60;;
62580;SDS011;48640;48.770;9.148;2022-11-15T05:05:18;3.97;;;1.70;;
62580;SDS011;48640;48.770;9.148;2022-11-15T05:07:43;4.63;;;1.73;;
62580;SDS011;48640;48.770;9.148;2022-11-15T05:10:10;3.00;;;1.52;;
62580;SDS011;48640;48.770;9.148;2022-11-15T05:12:37;4.50;;;2.03;;
62580;SDS011;48640;48.770;9.148;2022-11-15T05:15:05;4.70;;;1.70;;
62580;SDS011;48640;48.770;9.148;2022-11-15T05:17:32;3.83;;;1.88;;
62580;SDS011;48640;48.770;9.148;2022-11-15T05:19:59;4.43;;;2.13;;
62580;SDS011;48640;48.770;9.148;2022-11-15T05:22:27;3.17;;;1.60;;
62580;SDS011;48640;48.770;9.148;2022-11-15T05:24:54;6.35;;;2.05;;
62580;SDS011;48640;48.770;9.148;2022-11-15T05:27:21;4.38;;;1.63;;
62580;SDS011;48640;48.770;9.148;2022-11-15T05:29:48;4.97;;;1.85;;
62580;SDS011;48640;48.770;9.148;2022-11-15T05:32:15;4.57;;;2.00;;
62580;SDS011;48640;48.770;9.148;2022-11-15T05:34:43;3.53;;;1.63;;
62580;SDS011;48640;48.770;9.148;2022-11-15T05:37:11;4.30;;;1.60;;
62580;SDS011;48640;48.770;9.148;2022-11-15T05:39:40;3.42;;;1.90;;
62580;SDS011;48640;48.770;9.148;2022-11-15T05:42:07;3.58;;;2.10;;
62580;SDS011;48640;48.770;9.148;2022-11-15T05:44:37;4.03;;;1.50;;
62580;SDS011;48640;48.770;9.148;2022-11-15T05:47:08;4.80;;;1.80;;
62580;SDS011;48640;48.770;9.148;2022-11-15T05:49:38;4.20;;;1.80;;
62580;SDS011;48640;48.770;9.148;2022-11-15T05:52:07;4.65;;;1.80;;
62580;SDS011;48640;48.770;9.148;2022-11-15T05:54:37;5.20;;;1.98;;
62580;SDS011;48640;48.770;9.148;2022-11-15T05:57:05;3.15;;;1.80;;
62580;SDS011;48640;48.770;9.148;2022-11-15T05:59:33;3.03;;;1.70;;
62580;SDS011;48640;48.770;9.148;2022-11-15T06:02:01;4.97;;;2.10;;
62580;SDS011;48640;48.770;9.148;2022-11-15T06:04:28;2.85;;;1.60;;
62580;SDS011;48640;48.770;9.148;2022-11-15T06:06:54;4.90;;;1.95;;
62580;SDS011;48640;48.770;9.148;2022-11-15T06:09:21;5.30;;;1.83;;
62580;SDS011;48640;48.770;9.148;2022-11-15T06:11:48;4.53;;;1.88;;
62580;SDS011;48640;48.770;9.148;2022-11-15T06:14:16;3.10;;;1.60;;
62580;SDS011;48640;48.770;9.148;2022-11-15T06:16:43;5.63;;;2.00;;
62580;SDS011;48640;48.770;9.148;2022-11-15T06:19:10;3.40;;;1.95;;
62580;SDS011;48640;48.770;9.148;2022-11-15T06:21:37;3.25;;;1.63;;
62580;SDS011;48640;48.770;9.148;2022-11-15T06:24:04;5.15;;;2.55;;
62580;SDS011;48640;48.770;9.148;2022-11-15T06:26:31;8.13;;;2.25;;
62580;SDS011;48640;48.770;9.148;2022-11-15T06:28:58;2.95;;;1.77;;
62580;SDS011;48640;48.770;9.148;2022-11-15T06:31:26;4.00;;;1.90;;
62580;SDS011;48640;48.770;9.148;2022-11-15T06:33:53;4.45;;;1.95;;
62580;SDS011;48640;48.770;9.148;2022-11-15T06:36:20;5.72;;;2.10;;
62580;SDS011;48640;48.770;9.148;2022-11-15T06:38:47;5.60;;;2.47;;
62580;SDS011;48640;48.770;9.148;2022-11-15T06:41:14;4.55;;;2.33;;
62580;SDS011;48640;48.770;9.148;2022-11-15T06:43:41;5.28;;;2.67;;
62580;SDS011;48640;48.770;9.148;2022-11-15T06:46:08;6.05;;;3.50;;
62580;SDS011;48640;48.770;9.148;2022-11-15T06:48:37;6.90;;;2.70;;
62580;SDS011;48640;48.770;9.148;2022-11-15T06:51:04;4.40;;;2.38;;
62580;SDS011;48640;48.770;9.148;2022-11-15T06:53:32;6.88;;;2.50;;
62580;SDS011;48640;48.770;9.148;2022-11-15T06:55:59;8.65;;;3.67;;
62580;SDS011;48640;48.770;9.148;2022-11-15T06:58:26;6.13;;;2.92;;
62580;SDS011;48640;48.770;9.148;2022-11-15T07:00:53;5.18;;;2.40;;
62580;SDS011;48640;48.770;9.148;2022-11-15T07:03:24;4.32;;;2.50;;
62580;SDS011;48640;48.770;9.148;2022-11-15T07:05:53;6.20;;;2.70;;
62580;SDS011;48640;48.770;9.148;2022-11-15T07:08:21;4.35;;;2.47;;
62580;SDS011;48640;48.770;9.148;2022-11-15T07:10:48;6.95;;;2.80;;
62580;SDS011;48640;48.770;9.148;2022-11-15T07:13:15;5.53;;;2.60;;
62580;SDS011;48640;48.770;9.148;2022-11-15T07:15:42;3.40;;;2.55;;
62580;SDS011;48640;48.770;9.148;2022-11-15T07:18:09;5.55;;;2.50;;
62580;SDS011;48640;48.770;9.148;2022-11-15T07:20:36;6.97;;;3.35;;
62580;SDS011;48640;48.770;9.148;2022-11-15T07:23:04;6.20;;;2.60;;
62580;SDS011;48640;48.770;9.148;2022-11-15T07:25:31;4.13;;;2.65;;
62580;SDS011;48640;48.770;9.148;2022-11-15T07:27:58;5.97;;;2.75;;
62580;SDS011;48640;48.770;9.148;2022-11-15T07:30:26;5.57;;;2.80;;
62580;SDS011;48640;48.770;9.148;2022-11-15T07:32:53;4.28;;;2.55;;
62580;SDS011;48640;48.770;9.148;2022-11-15T07:35:20;5.50;;;2.58;;
62580;SDS011;48640;48.770;9.148;2022-11-15T07:37:57;6.82;;;2.80;;
62580;SDS011;48640;48.770;9.148;2022-11-15T07:40:26;4.88;;;2.58;;
62580;SDS011;48640;48.770;9.148;2022-11-15T07:42:58;4.93;;;2.05;;
62580;SDS011;48640;48.770;9.148;2022-11-15T07:45:25;4.18;;;2.10;;
62580;SDS011;48640;48.770;9.148;2022-11-15T07:47:52;6.03;;;2.13;;
62580;SDS011;48640;48.770;9.148;2022-11-15T07:50:20;4.00;;;2.33;;
62580;SDS011;48640;48.770;9.148;2022-11-15T07:52:52;4.53;;;2.35;;
62580;SDS011;48640;48.770;9.148;2022-11-15T07:55:20;5.40;;;2.97;;
62580;SDS011;48640;48.770;9.148;2022-11-15T07:57:48;3.67;;;2.22;;
62580;SDS011;48640;48.770;9.148;2022-11-15T08:00:15;4.80;;;2.72;;
62580;SDS011;48640;48.770;9.148;2022-11-15T08:02:43;4.43;;;2.25;;
62580;SDS011;48640;48.770;9.148;2022-11-15T08:05:10;3.70;;;2.15;;
62580;SDS011;48640;48.770;9.148;2022-11-15T08:07:37;5.18;;;2.22;;
62580;SDS011;48640;48.770;9.148;2022-11-15T08:10:05;5.57;;;2.55;;
62580;SDS011;48640;48.770;9.148;2022-11-15T08:12:33;4.97;;;2.40;;
62580;SDS011;48640;48.770;9.148;2022-11-15T08:15:01;6.35;;;2.70;;
62580;SDS011;48640;48.770;9.148;2022-11-15T08:17:28;4.70;;;2.40;;
62580;SDS011;48640;48.770;9.148;2022-11-15T08:19:57;4.03;;;2.55;;
62580;SDS011;48640;48.770;9.148;2022-11-15T08:22:24;3.30;;;2.10;;
62580;SDS011;48640;48.770;9.148;2022-11-15T08:24:52;5.38;;;2.47;;
62580;SDS011;48640;48.770;9.148;2022-11-15T08:27:18;7.00;;;3.10;;
62580;SDS011;48640;48.770;9.148;2022-11-15T08:29:45;5.55;;;2.75;;
62580;SDS011;48640;48.770;9.148;2022-11-15T08:32:14;4.05;;;2.90;;
62580;SDS011;48640;48.770;9.148;2022-11-15T08:34:42;7.30;;;2.75;;
62580;SDS011;48640;48.770;9.148;2022-11-15T08:37:09;5.82;;;2.72;;
62580;SDS011;48640;48.770;9.148;2022-11-15T08:39:36;5.93;;;2.67;;
62580;SDS011;48640;48.770;9.148;2022-11-15T08:42:03;5.35;;;2.03;;
62580;SDS011;48640;48.770;9.148;2022-11-15T08:44:30;4.72;;;2.42;;
62580;SDS011;48640;48.770;9.148;2022-11-15T08:46:56;6.38;;;2.40;;
62580;SDS011;48640;48.770;9.148;2022-11-15T08:49:25;8.32;;;3.00;;
62580;SDS011;48640;48.770;9.148;2022-11-15T08:51:51;8.55;;;2.30;;
62580;SDS011;48640;48.770;9.148;2022-11-15T08:54:18;4.68;;;2.35;;
62580;SDS011;48640;48.770;9.148;2022-11-15T08:56:45;4.57;;;1.80;;
62580;SDS011;48640;48.770;9.148;2022-11-15T08:59:12;5.18;;;2.60;;
62580;SDS011;48640;48.770;9.148;2022-11-15T09:01:38;4.07;;;2.10;;
62580;SDS011;48640;48.770;9.148;2022-11-15T09:04:05;4.30;;;2.03;;
62580;SDS011;48640;48.770;9.148;2022-11-15T09:06:33;4.60;;;2.50;;
62580;SDS011;48640;48.770;9.148;2022-11-15T09:09:00;5.40;;;2.03;;
62580;SDS011;48640;48.770;9.148;2022-11-15T09:11:27;3.95;;;2.05;;
62580;SDS011;48640;48.770;9.148;2022-11-15T09:13:54;5.43;;;2.47;;
62580;SDS011;48640;48.770;9.148;2022-11-15T09:16:21;5.20;;;2.67;;
62580;SDS011;48640;48.770;9.148;2022-11-15T09:18:48;5.82;;;2.58;;
62580;SDS011;48640;48.770;9.148;2022-11-15T09:21:15;6.15;;;2.60;;
62580;SDS011;48640;48.770;9.148;2022-11-15T09:23:43;5.38;;;2.35;;
62580;SDS011;48640;48.770;9.148;2022-11-15T09:26:10;5.28;;;2.40;;
62580;SDS011;48640;48.770;9.148;2022-11-15T09:28:37;6.88;;;2.20;;
62580;SDS011;48640;48.770;9.148;2022-11-15T09:31:06;9.48;;;2.22;;
62580;SDS011;48640;48.770;9.148;2022-11-15T09:33:34;5.20;;;2.60;;
62580;SDS011;48640;48.770;9.148;2022-11-15T09:36:00;4.10;;;2.50;;
62580;SDS011;48640;48.770;9.148;2022-11-15T09:38:28;5.57;;;2.53;;
62580;SDS011;48640;48.770;9.148;2022-11-15T09:40:59;4.68;;;2.50;;
62580;SDS011;48640;48.770;9.148;2022-11-15T09:43:52;8.13;;;2.70;;
62580;SDS011;48640;48.770;9.148;2022-11-15T09:46:30;4.25;;;2.42;;
62580;SDS011;48640;48.770;9.148;2022-11-15T09:49:04;8.10;;;2.97;;
62580;SDS011;48640;48.770;9.148;2022-11-15T09:51:33;4.47;;;2.25;;
62580;SDS011;48640;48.770;9.148;2022-11-15T09:54:05;7.43;;;2.97;;
62580;SDS011;48640;48.770;9.148;2022-11-15T09:56:41;5.93;;;2.40;;
62580;SDS011;48640;48.770;9.148;2022-11-15T10:02:17;3.50;;;1.98;;
62580;SDS011;48640;48.770;9.148;2022-11-15T10:04:55;5.82;;;2.75;;
62580;SDS011;48640;48.770;9.148;2022-11-15T10:07:25;3.35;;;1.83;;
62580;SDS011;48640;48.770;9.148;2022-11-15T10:09:58;4.53;;;1.98;;
62580;SDS011;48640;48.770;9.148;2022-11-15T10:12:32;4.32;;;2.13;;
62580;SDS011;48640;48.770;9.148;2022-11-15T10:15:00;3.30;;;1.85;;
62580;SDS011;48640;48.770;9.148;2022-11-15T10:17:33;3.78;;;1.83;;
62580;SDS011;48640;48.770;9.148;2022-11-15T10:20:30;4.10;;;2.10;;
62580;SDS011;48640;48.770;9.148;2022-11-15T10:23:02;4.30;;;1.90;;
62580;SDS011;48640;48.770;9.148;2022-11-15T10:25:32;3.72;;;1.85;;
62580;SDS011;48640;48.770;9.148;2022-11-15T10:28:05;6.97;;;2.30;;
62580;SDS011;48640;48.770;9.148;2022-11-15T10:30:38;3.17;;;1.95;;
62580;SDS011;48640;48.770;9.148;2022-11-15T10:36:14;3.40;;;1.77;;
62580;SDS011;48640;48.770;9.148;2022-11-15T10:38:56;4.53;;;2.15;;
62580;SDS011;48640;48.770;9.148;2022-11-15T10:41:31;2.92;;;1.80;;
62580;SDS011;48640;48.770;9.148;2022-11-15T10:49:31;7.82;;;2.88;;
62580;SDS011;48640;48.770;9.148;2022-11-15T10:52:00;4.15;;;1.63;;
62580;SDS011;48640;48.770;9.148;2022-11-15T10:54:30;2.92;;;1.48;;
62580;SDS011;48640;48.770;9.148;2022-11-15T10:57:04;3.35;;;1.70;;
62580;SDS011;48640;48.770;9.148;2022-11-15T10:59:35;3.15;;;1.85;;
62580;SDS011;48640;48.770;9.148;2022-11-15T11:04:48;4.22;;;1.83;;
62580;SDS011;48640;48.770;9.148;2022-11-15T11:07:19;4.28;;;1.77;;
62580;SDS011;48640;48.770;9.148;2022-11-15T11:09:49;3.67;;;1.58;;
62580;SDS011;48640;48.770;9.148;2022-11-15T11:12:26;3.35;;;1.75;;
62580;SDS011;48640;48.770;9.148;2022-11-15T11:14:56;3.53;;;1.83;;
62580;SDS011;48640;48.770;9.148;2022-11-15T11:17:27;3.53;;;1.80;;
62580;SDS011;48640;48.770;9.148;2022-11-15T11:20:02;3.92;;;1.60;;
62580;SDS011;48640;48.770;9.148;2022-11-15T11:22:34;4.32;;;1.75;;
62580;SDS011;48640;48.770;9.148;2022-11-15T11:25:14;4.13;;;1.58;;
62580;SDS011;48640;48.770;9.148;2022-11-15T11:27:56;5.90;;;2.72;;
62580;SDS011;48640;48.770;9.148;2022-11-15T11:30:41;3.45;;;1.65;;
62580;SDS011;48640;48.770;9.148;2022-11-15T11:33:16;2.92;;;1.52;;
62580;SDS011;48640;48.770;9.148;2022-11-15T11:35:59;5.57;;;1.63;;
62580;SDS011;48640;48.770;9.148;2022-11-15T11:38:44;4.78;;;1.77;;
62580;SDS011;48640;48.770;9.148;2022-11-15T11:41:20;5.00;;;2.70;;
62580;SDS011;48640;48.770;9.148;2022-11-15T11:44:06;10.73;;;2.10;;
62580;SDS011;48640;48.770;9.148;2022-11-15T11:46:47;4.20;;;1.77;;
62580;SDS011;48640;48.770;9.148;2022-11-15T11:49:19;3.30;;;1.60;;
62580;SDS011;48640;48.770;9.148;2022-11-15T11:51:51;4.35;;;1.67;;
62580;SDS011;48640;48.770;9.148;2022-11-15T11:54:22;6.28;;;1.95;;
62580;SDS011;48640;48.770;9.148;2022-11-15T11:56:58;2.72;;;1.35;;
62580;SDS011;48640;48.770;9.148;2022-11-15T11:59:28;4.57;;;1.80;;
62580;SDS011;48640;48.770;9.148;2022-11-15T12:02:02;3.80;;;1.40;;
62580;SDS011;48640;48.770;9.148;2022-11-15T12:04:40;4.43;;;1.80;;
62580;SDS011;48640;48.770;9.148;2022-11-15T12:07:13;4.32;;;1.35;;
62580;SDS011;48640;48.770;9.148;2022-11-15T12:09:46;4.43;;;1.67;;
62580;SDS011;48640;48.770;9.148;2022-11-15T12:12:18;3.60;;;1.50;;
62580;SDS011;48640;48.770;9.148;2022-11-15T12:14:51;3.10;;;1.60;;
62580;SDS011;48640;48.770;9.148;2022-11-15T12:19:50;8.13;;;1.70;;
62580;SDS011;48640;48.770;9.148;2022-11-15T12:22:18;3.78;;;1.60;;
62580;SDS011;48640;48.770;9.148;2022-11-15T12:24:50;5.55;;;1.70;;
62580;SDS011;48640;48.770;9.148;2022-11-15T12:27:24;4.70;;;1.75;;
62580;SDS011;48640;48.770;9.148;2022-11-15T12:29:58;6.65;;;1.80;;
62580;SDS011;48640;48.770;9.148;2022-11-15T12:32:30;4.05;;;1.38;;
62580;SDS011;48640;48.770;9.148;2022-11-15T12:35:00;3.00;;;1.48;;
62580;SDS011;48640;48.770;9.148;2022-11-15T12:40:24;3.13;;;1.60;;
62580;SDS011;48640;48.770;9.148;2022-11-15T12:42:57;4.68;;;1.83;;
62580;SDS011;48640;48.770;9.148;2022-11-15T12:45:45;3.53;;;1.48;;
62580;SDS011;48640;48.770;9.148;2022-11-15T13:00:37;5.47;;;2.00;;
62580;SDS011;48640;48.770;9.148;2022-11-15T13:09:03;5.43;;;1.88;;
62580;SDS011;48640;48.770;9.148;2022-11-15T13:17:21;5.93;;;2.22;;
62580;SDS011;48640;48.770;9.148;2022-11-15T13:19:57;3.22;;;2.03;;
62580;SDS011;48640;48.770;9.148;2022-11-15T13:22:26;3.53;;;2.28;;
62580;SDS011;48640;48.770;9.148;2022-11-15T13:25:14;4.78;;;2.22;;
62580;SDS011;48640;48.770;9.148;2022-11-15T13:27:46;5.30;;;2.30;;
62580;SDS011;48640;48.770;9.148;2022-11-15T13:30:15;6.68;;;3.55;;
62580;SDS011;48640;48.770;9.148;2022-11-15T13:32:46;9.32;;;3.20;;
62580;SDS011;48640;48.770;9.148;2022-11-15T13:35:18;6.03;;;3.10;;
62580;SDS011;48640;48.770;9.148;2022-11-15T13:37:46;7.95;;;3.30;;
62580;SDS011;48640;48.770;9.148;2022-11-15T13:40:25;6.40;;;3.13;;
62580;SDS011;48640;48.770;9.148;2022-11-15T13:42:57;5.43;;;3.40;;
62580;SDS011;48640;48.770;9.148;2022-11-15T13:45:24;6.53;;;4.03;;
62580;SDS011;48640;48.770;9.148;2022-11-15T13:47:53;6.80;;;2.90;;
62580;SDS011;48640;48.770;9.148;2022-11-15T13:50:22;8.50;;;3.63;;
62580;SDS011;48640;48.770;9.148;2022-11-15T13:52:53;8.85;;;3.55;;
62580;SDS011;48640;48.770;9.148;2022-11-15T13:55:23;8.25;;;4.07;;
62580;SDS011;48640;48.770;9.148;2022-11-15T13:57:51;5.65;;;3.35;;
62580;SDS011;48640;48.770;9.148;2022-11-15T14:02:55;8.10;;;3.83;;
62580;SDS011;48640;48.770;9.148;2022-11-15T14:05:31;6.38;;;3.85;;
62580;SDS011;48640;48.770;9.148;2022-11-15T14:07:59;5.82;;;3.40;;
62580;SDS011;48640;48.770;9.148;2022-11-15T14:10:29;6.50;;;3.72;;
62580;SDS011;48640;48.770;9.148;2022-11-15T14:12:57;4.75;;;3.40;;
62580;SDS011;48640;48.770;9.148;2022-11-15T14:15:28;10.50;;;3.45;;
62580;SDS011;48640;48.770;9.148;2022-11-15T14:17:57;6.32;;;2.95;;
62580;SDS011;48640;48.770;9.148;2022-11-15T14:20:28;5.00;;;3.40;;
62580;SDS011;48640;48.770;9.148;2022-11-15T14:22:58;6.30;;;3.33;;
62580;SDS011;48640;48.770;9.148;2022-11-15T14:25:26;5.80;;;3.20;;
62580;SDS011;48640;48.770;9.148;2022-11-15T14:28:10;9.07;;;3.80;;
62580;SDS011;48640;48.770;9.148;2022-11-15T14:30:43;10.98;;;3.78;;
62580;SDS011;48640;48.770;9.148;2022-11-15T14:33:19;6.30;;;3.30;;
62580;SDS011;48640;48.770;9.148;2022-11-15T14:35:48;7.75;;;3.70;;
62580;SDS011;48640;48.770;9.148;2022-11-15T14:38:15;5.90;;;3.83;;
62580;SDS011;48640;48.770;9.148;2022-11-15T14:40:42;7.05;;;3.72;;
62580;SDS011;48640;48.770;9.148;2022-11-15T14:43:10;6.30;;;3.83;;
62580;SDS011;48640;48.770;9.148;2022-11-15T14:45:37;7.05;;;3.17;;
62580;SDS011;48640;48.770;9.148;2022-11-15T14:48:06;7.35;;;3.38;;
62580;SDS011;48640;48.770;9.148;2022-11-15T14:50:33;7.32;;;3.25;;
62580;SDS011;48640;48.770;9.148;2022-11-15T14:53:01;5.22;;;3.25;;
62580;SDS011;48640;48.770;9.148;2022-11-15T14:55:29;4.93;;;2.60;;
62580;SDS011;48640;48.770;9.148;2022-11-15T14:58:00;9.75;;;3.63;;
62580;SDS011;48640;48.770;9.148;2022-11-15T15:00:27;4.82;;;3.00;;
62580;SDS011;48640;48.770;9.148;2022-11-15T15:02:55;6.88;;;3.38;;
62580;SDS011;48640;48.770;9.148;2022-11-15T15:05:24;4.85;;;2.97;;
62580;SDS011;48640;48.770;9.148;2022-11-15T15:07:54;5.15;;;2.90;;
62580;SDS011;48640;48.770;9.148;2022-11-15T15:10:20;6.78;;;3.42;;
62580;SDS011;48640;48.770;9.148;2022-11-15T15:12:48;7.95;;;2.92;;
62580;SDS011;48640;48.770;9.148;2022-11-15T15:15:15;5.05;;;2.55;;
62580;SDS011;48640;48.770;9.148;2022-11-15T15:17:44;5.20;;;3.33;;
62580;SDS011;48640;48.770;9.148;2022-11-15T15:20:10;5.68;;;3.50;;
62580;SDS011;48640;48.770;9.148;2022-11-15T15:22:39;8.43;;;2.83;;
62580;SDS011;48640;48.770;9.148;2022-11-15T15:25:23;7.30;;;3.63;;
62580;SDS011;48640;48.770;9.148;2022-11-15T15:27:52;7.00;;;3.10;;
62580;SDS011;48640;48.770;9.148;2022-11-15T15:30:19;8.20;;;3.20;;
62580;SDS011;48640;48.770;9.148;2022-11-15T15:32:46;8.35;;;3.80;;
62580;SDS011;48640;48.770;9.148;2022-11-15T15:35:13;8.90;;;3.45;;
62580;SDS011;48640;48.770;9.148;2022-11-15T15:37:43;6.55;;;3.72;;
62580;SDS011;48640;48.770;9.148;2022-11-15T15:40:13;7.10;;;3.72;;
62580;SDS011;48640;48.770;9.148;2022-11-15T15:42:41;6.50;;;3.20;;
62580;SDS011;48640;48.770;9.148;2022-11-15T15:45:09;5.80;;;3.08;;
62580;SDS011;48640;48.770;9.148;2022-11-15T15:47:36;5.50;;;3.42;;
62580;SDS011;48640;48.770;9.148;2022-11-15T15:50:03;5.82;;;3.85;;
62580;SDS011;48640;48.770;9.148;2022-11-15T15:52:37;6.03;;;3.63;;
62580;SDS011;48640;48.770;9.148;2022-11-15T15:55:06;6.80;;;3.75;;
62580;SDS011;48640;48.770;9.148;2022-11-15T15:57:33;5.63;;;3.55;;